Time;durP1;ratioP1;P1;durP2;ratioP2;P2;SDS_P1;SDS_P2;PMS_P1;PMS_P2;Temp;Humidity;BMP_temperature;BMP_pressure;BME280_temperature;BME280_humidity;BME280_pressure;Samples;Min_cycle;Max_cycle;Signal;HPM_P1;HPM_P2
2021/06/03 00:01:23;;;;;;;2.85;1.15;;;19.90;58.30;;;;;;4734013;30;20047;-91
2021/06/03 00:03:50;;;;;;;3.33;1.52;;;19.90;58.50;;;;;;4719939;30;20047;-90
2021/06/03 00:06:17;;;;;;;4.82;1.65;;;19.80;58.80;;;;;;4749152;30;20477;-91
2021/06/03 00:08:45;;;;;;;4.18;1.38;;;19.80;58.90;;;;;;4728306;30;20077;-91
2021/06/03 00:11:13;;;;;;;3.05;1.67;;;19.70;59.10;;;;;;4697313;30;20056;-92
2021/06/03 00:13:43;;;;;;;2.22;1.20;;;19.70;59.30;;;;;;4729154;30;20059;-92
2021/06/03 00:16:16;;;;;;;3.67;1.60;;;19.60;59.40;;;;;;4726716;30;20067;-92
2021/06/03 00:18:43;;;;;;;;;;;19.60;59.60;;;;;;4738314;30;20071;-92
2021/06/03 00:21:11;;;;;;;2.20;0.90;;;19.50;59.30;;;;;;4738695;30;19921;-92
2021/06/03 00:23:37;;;;;;;2.50;1.27;;;19.40;59.60;;;;;;4730844;30;20043;-92
2021/06/03 00:26:04;;;;;;;2.83;1.30;;;19.40;59.70;;;;;;4731288;30;20481;-90
2021/06/03 00:28:33;;;;;;;2.38;1.20;;;19.40;59.90;;;;;;4746902;30;20047;-90
2021/06/03 00:31:06;;;;;;;2.58;1.40;;;19.30;60.10;;;;;;4737802;30;20513;-91
2021/06/03 00:33:32;;;;;;;1.80;1.20;;;19.30;60.30;;;;;;4717345;30;20048;-91
2021/06/03 00:36:05;;;;;;;4.22;1.20;;;19.30;60.60;;;;;;4711754;30;20052;-91
2021/06/03 00:38:31;;;;;;;1.77;1.02;;;19.20;60.80;;;;;;4733513;30;20044;-91
2021/06/03 00:40:58;;;;;;;4.35;1.20;;;19.20;61.00;;;;;;4723625;30;20051;-91
2021/06/03 00:43:25;;;;;;;4.78;1.27;;;19.10;61.00;;;;;;4739194;30;20055;-91
2021/06/03 00:45:51;;;;;;;3.35;1.30;;;19.10;61.10;;;;;;4718455;30;20055;-92
2021/06/03 00:48:18;;;;;;;2.17;1.50;;;19.10;61.50;;;;;;4739765;30;20048;-91
2021/06/03 00:50:51;;;;;;;7.38;1.30;;;19.10;61.80;;;;;;4723227;30;20044;-92
2021/06/03 00:53:18;;;;;;;3.20;1.42;;;19.00;62.30;;;;;;4733486;30;20048;-92
2021/06/03 00:55:52;;;;;;;3.05;1.55;;;19.00;62.40;;;;;;4741444;30;20409;-89
2021/06/03 00:58:23;;;;;;;3.60;1.10;;;19.00;62.80;;;;;;4728527;30;20051;-92
2021/06/03 01:00:52;;;;;;;3.95;1.08;;;18.90;62.90;;;;;;4724445;30;20501;-90
2021/06/03 01:03:20;;;;;;;4.53;1.40;;;18.90;63.30;;;;;;4748782;30;20466;-92
2021/06/03 01:05:57;;;;;;;2.63;1.50;;;18.80;63.60;;;;;;4732197;30;20409;-92
2021/06/03 01:08:31;;;;;;;2.95;1.02;;;18.80;64.40;;;;;;4726438;30;20051;-92
2021/06/03 01:11:16;;;;;;;4.60;1.60;;;18.80;64.50;;;;;;4742283;30;20124;-92
2021/06/03 01:14:20;;;;;;;3.17;1.20;;;18.70;65.10;;;;;;4742156;30;20063;-92
2021/06/03 01:16:48;;;;;;;3.97;1.30;;;18.70;65.10;;;;;;4724930;30;20048;-92
2021/06/03 01:19:45;;;;;;;2.22;1.40;;;18.70;65.50;;;;;;4733824;30;20055;-92
2021/06/03 01:22:19;;;;;;;2.60;1.20;;;18.60;66.00;;;;;;4723266;30;20060;-91
2021/06/03 01:24:52;;;;;;;2.40;1.30;;;18.60;66.00;;;;;;4734665;30;20591;-92
2021/06/03 01:27:25;;;;;;;1.42;1.23;;;18.60;66.20;;;;;;4736180;30;20057;-92
2021/06/03 01:30:06;;;;;;;1.92;1.00;;;18.50;66.50;;;;;;4751584;30;20040;-91
2021/06/03 01:32:36;;;;;;;4.00;1.15;;;18.50;67.00;;;;;;4721486;30;20063;-92
2021/06/03 01:35:10;;;;;;;2.28;1.05;;;18.50;67.60;;;;;;4722919;30;20060;-92
2021/06/03 01:37:38;;;;;;;1.70;1.00;;;18.50;67.20;;;;;;4743239;30;20075;-91
2021/06/03 01:40:06;;;;;;;3.22;1.00;;;18.50;67.30;;;;;;4717654;30;20481;-92
2021/06/03 01:42:36;;;;;;;1.70;0.93;;;18.40;67.30;;;;;;4717248;30;20073;-91
2021/06/03 01:45:04;;;;;;;1.90;1.20;;;18.50;67.60;;;;;;4731148;30;20048;-91
2021/06/03 01:47:33;;;;;;;4.65;1.05;;;18.40;67.90;;;;;;4749826;30;20056;-92
2021/06/03 01:50:00;;;;;;;1.67;0.98;;;18.40;68.30;;;;;;4751713;30;20056;-91
2021/06/03 01:52:26;;;;;;;2.55;0.90;;;18.40;68.60;;;;;;4751566;30;20048;-92
2021/06/03 01:54:53;;;;;;;3.25;1.10;;;18.30;68.80;;;;;;4713493;30;20063;-92
2021/06/03 01:57:20;;;;;;;1.73;1.10;;;18.30;69.30;;;;;;4748368;30;20060;-91
2021/06/03 02:00:00;;;;;;;2.33;1.10;;;18.30;69.40;;;;;;4720794;30;20052;-92
2021/06/03 02:02:35;;;;;;;1.95;0.90;;;18.20;69.60;;;;;;4740257;30;20052;-92
2021/06/03 02:05:02;;;;;;;2.78;1.10;;;18.20;69.90;;;;;;4737409;30;20040;-92
2021/06/03 02:07:29;;;;;;;2.72;1.08;;;18.20;70.90;;;;;;4742855;30;20037;-91
2021/06/03 02:09:55;;;;;;;1.50;0.93;;;18.20;70.60;;;;;;4728239;30;20062;-92
2021/06/03 02:12:23;;;;;;;1.25;0.80;;;18.10;70.90;;;;;;4736850;30;20051;-91
2021/06/03 02:14:53;;;;;;;2.55;0.88;;;18.10;71.20;;;;;;4726178;30;20043;-91
2021/06/03 02:17:24;;;;;;;1.50;0.70;;;18.10;71.30;;;;;;4726156;30;20052;-91
2021/06/03 02:20:11;;;;;;;3.22;0.93;;;18.00;71.40;;;;;;4723762;30;20525;-92
2021/06/03 02:22:44;;;;;;;1.70;0.70;;;18.00;71.60;;;;;;4735650;30;20036;-92
2021/06/03 02:25:11;;;;;;;2.25;1.00;;;18.00;71.90;;;;;;4751585;30;20059;-91
2021/06/03 02:27:40;;;;;;;2.13;0.95;;;18.00;72.20;;;;;;4722104;30;20036;-92
2021/06/03 02:30:10;;;;;;;1.65;0.98;;;17.90;73.20;;;;;;4727830;30;20040;-92
2021/06/03 02:32:38;;;;;;;1.92;1.10;;;17.90;73.00;;;;;;4736298;30;20515;-86
2021/06/03 02:35:10;;;;;;;2.72;0.90;;;17.90;73.20;;;;;;4748647;30;20032;-88
2021/06/03 02:37:39;;;;;;;1.85;1.05;;;17.90;73.50;;;;;;4738572;30;20040;-92
2021/06/03 02:40:12;;;;;;;2.08;0.90;;;17.80;73.70;;;;;;4724577;30;20040;-93
2021/06/03 02:42:43;;;;;;;2.95;1.10;;;17.80;74.10;;;;;;4738891;30;20051;-93
2021/06/03 02:45:13;;;;;;;1.35;0.82;;;17.80;74.10;;;;;;4739377;30;20044;-92
2021/06/03 02:47:42;;;;;;;1.58;0.93;;;17.80;74.60;;;;;;4724771;30;20040;-92
2021/06/03 02:50:13;;;;;;;2.13;1.20;;;17.80;74.90;;;;;;4717459;30;20358;-92
2021/06/03 02:52:42;;;;;;;1.63;1.33;;;17.80;75.10;;;;;;4727471;30;20040;-92
2021/06/03 02:55:13;;;;;;;2.78;1.08;;;17.70;75.00;;;;;;4693336;30;20059;-92
2021/06/03 02:57:41;;;;;;;2.33;1.05;;;17.80;75.40;;;;;;4747724;30;20509;-81
2021/06/03 03:00:15;;;;;;;2.28;1.73;;;17.70;75.40;;;;;;4728511;30;20063;-81
2021/06/03 03:02:41;;;;;;;2.25;1.10;;;17.70;75.80;;;;;;4710460;30;20465;-81
2021/06/03 03:05:09;;;;;;;1.70;1.02;;;17.70;76.00;;;;;;4707289;30;20040;-80
2021/06/03 03:07:36;;;;;;;3.47;1.10;;;17.70;76.30;;;;;;4730287;30;20070;-81
2021/06/03 03:10:07;;;;;;;2.80;1.42;;;17.70;76.80;;;;;;4727270;30;20067;-81
2021/06/03 03:12:33;;;;;;;2.45;0.90;;;17.70;76.90;;;;;;4726254;30;20044;-81
2021/06/03 03:15:07;;;;;;;1.70;1.00;;;17.70;77.00;;;;;;4717345;30;20063;-81
2021/06/03 03:17:34;;;;;;;1.60;0.98;;;17.70;77.50;;;;;;4725009;30;20048;-81
2021/06/03 03:20:01;;;;;;;1.50;0.90;;;17.70;77.70;;;;;;4716811;30;20051;-80
2021/06/03 03:22:28;;;;;;;1.75;0.90;;;17.70;77.90;;;;;;4715805;30;20055;-81
2021/06/03 03:24:54;;;;;;;3.30;1.10;;;17.70;77.90;;;;;;4735101;30;20146;-93
2021/06/03 03:27:21;;;;;;;2.13;1.40;;;17.70;78.10;;;;;;4710508;30;20048;-93
2021/06/03 03:29:48;;;;;;;2.95;1.00;;;17.60;78.30;;;;;;4753433;30;20048;-93
2021/06/03 03:32:17;;;;;;;1.65;0.90;;;17.70;79.10;;;;;;4724785;30;20055;-93
2021/06/03 03:34:43;;;;;;;2.70;0.88;;;17.70;78.60;;;;;;4722121;30;20061;-93
2021/06/03 03:37:11;;;;;;;3.47;0.90;;;17.70;78.60;;;;;;4738722;30;20070;-93
2021/06/03 03:39:38;;;;;;;1.55;0.80;;;17.80;78.90;;;;;;4724182;30;20059;-93
2021/06/03 03:42:04;;;;;;;3.03;0.95;;;17.70;78.90;;;;;;4711800;30;20154;-93
2021/06/03 03:44:32;;;;;;;5.30;0.93;;;17.70;79.10;;;;;;4737539;30;20052;-93
2021/06/03 03:46:58;;;;;;;2.88;1.20;;;17.70;79.30;;;;;;4746586;30;20059;-93
2021/06/03 03:49:25;;;;;;;1.80;0.90;;;17.80;79.90;;;;;;4723400;30;20044;-94
2021/06/03 03:51:56;;;;;;;1.85;1.00;;;17.70;80.60;;;;;;4724707;30;20048;-93
2021/06/03 03:54:23;;;;;;;2.60;1.40;;;17.70;80.30;;;;;;4709582;30;20385;-92
2021/06/03 03:56:50;;;;;;;1.65;0.95;;;17.70;80.60;;;;;;4711879;30;20045;-92
2021/06/03 03:59:17;;;;;;;2.38;1.00;;;17.70;80.70;;;;;;4724064;30;20044;-93
2021/06/03 04:01:45;;;;;;;1.88;1.00;;;17.70;81.00;;;;;;4723577;30;20044;-93
2021/06/03 04:04:12;;;;;;;1.95;0.93;;;17.70;81.00;;;;;;4737354;30;20480;-93
2021/06/03 04:06:41;;;;;;;2.28;1.10;;;17.70;81.10;;;;;;4737576;30;20124;-93
2021/06/03 04:09:09;;;;;;;2.10;1.20;;;17.70;81.10;;;;;;4736964;30;20052;-92
2021/06/03 04:11:36;;;;;;;1.90;1.20;;;17.70;81.40;;;;;;4719864;30;20095;-93
2021/06/03 04:14:04;;;;;;;3.25;1.27;;;17.70;81.70;;;;;;4734639;30;20060;-93
2021/06/03 04:16:31;;;;;;;1.73;0.90;;;17.80;81.90;;;;;;4696340;30;20394;-93
2021/06/03 04:18:58;;;;;;;1.83;1.13;;;17.80;81.90;;;;;;4705886;30;20044;-94
2021/06/03 04:21:28;;;;;;;2.25;1.00;;;17.80;82.00;;;;;;4718499;30;20482;-93
2021/06/03 04:23:55;;;;;;;2.22;1.00;;;17.80;82.10;;;;;;4734644;30;20048;-93
2021/06/03 04:26:21;;;;;;;2.28;1.40;;;17.80;82.20;;;;;;4717192;30;20047;-93
2021/06/03 04:28:48;;;;;;;3.80;1.15;;;17.80;82.20;;;;;;4696520;30;20401;-93
2021/06/03 04:31:15;;;;;;;4.32;1.27;;;17.90;82.40;;;;;;4717798;30;20052;-93
2021/06/03 04:33:42;;;;;;;2.65;1.42;;;18.00;82.60;;;;;;4699875;30;20116;-93
2021/06/03 04:36:09;;;;;;;2.75;1.27;;;18.00;82.70;;;;;;4698549;30;20044;-94
2021/06/03 04:38:36;;;;;;;3.50;1.33;;;18.10;82.80;;;;;;4723123;30;20503;-92
2021/06/03 04:41:03;;;;;;;3.35;1.50;;;18.10;82.90;;;;;;4717698;30;20520;-82
2021/06/03 04:43:30;;;;;;;5.10;1.52;;;18.10;83.20;;;;;;4747274;30;20524;-90
2021/06/03 04:45:56;;;;;;;3.08;1.30;;;18.20;83.40;;;;;;4735229;30;20051;-90
2021/06/03 04:48:23;;;;;;;2.45;1.30;;;18.20;83.50;;;;;;4720998;30;20516;-89
2021/06/03 04:50:52;;;;;;;2.40;1.48;;;18.30;83.50;;;;;;4726408;30;20051;-88
2021/06/03 04:53:19;;;;;;;3.63;1.77;;;18.50;83.60;;;;;;4721700;30;20056;-89
2021/06/03 04:55:46;;;;;;;2.17;1.48;;;18.60;83.80;;;;;;4719894;30;20056;-88
2021/06/03 04:58:13;;;;;;;1.75;1.33;;;18.70;83.70;;;;;;4741111;30;20048;-89
2021/06/03 05:00:42;;;;;;;1.90;1.50;;;18.80;83.60;;;;;;4726233;30;20064;-90
2021/06/03 05:03:10;;;;;;;4.93;1.83;;;18.90;83.60;;;;;;4718200;30;20055;-90
2021/06/03 05:05:37;;;;;;;2.45;1.83;;;19.10;83.50;;;;;;4727362;30;20051;-90
2021/06/03 05:08:05;;;;;;;3.42;1.80;;;19.20;83.70;;;;;;4728990;30;20083;-89
2021/06/03 05:10:32;;;;;;;2.53;1.80;;;19.30;83.50;;;;;;4734072;30;20040;-90
2021/06/03 05:12:58;;;;;;;2.80;1.92;;;19.40;83.50;;;;;;4720242;30;20416;-90
2021/06/03 05:15:26;;;;;;;4.72;1.70;;;19.60;83.70;;;;;;4725762;30;20826;-90
2021/06/03 05:17:54;;;;;;;3.65;2.22;;;19.60;83.80;;;;;;4729096;30;20381;-89
2021/06/03 05:20:25;;;;;;;1.98;1.48;;;19.70;83.70;;;;;;4728571;30;20072;-90
2021/06/03 05:22:54;;;;;;;3.97;1.95;;;19.70;83.70;;;;;;4718540;30;20055;-90
2021/06/03 05:25:23;;;;;;;2.08;1.83;;;19.80;83.60;;;;;;4726144;30;20036;-90
2021/06/03 05:27:51;;;;;;;4.88;2.08;;;19.90;83.70;;;;;;4735317;30;20048;-90
2021/06/03 05:30:19;;;;;;;5.47;2.28;;;19.90;83.60;;;;;;4713873;30;20037;-90
2021/06/03 05:32:46;;;;;;;2.53;1.98;;;19.90;83.70;;;;;;4720707;30;20060;-90
2021/06/03 05:35:14;;;;;;;3.47;2.45;;;19.90;83.70;;;;;;4739135;30;20044;-93
2021/06/03 05:37:42;;;;;;;3.33;2.10;;;19.90;83.90;;;;;;4711646;30;20040;-89
2021/06/03 05:40:10;;;;;;;3.15;1.95;;;20.10;83.90;;;;;;4736491;30;20048;-91
2021/06/03 05:42:37;;;;;;;3.05;2.08;;;20.20;83.60;;;;;;4721366;30;20044;-91
2021/06/03 05:45:07;;;;;;;3.28;2.45;;;20.20;83.50;;;;;;4728643;30;20044;-92
2021/06/03 05:47:39;;;;;;;4.25;2.75;;;20.20;83.70;;;;;;4729229;30;20040;-92
2021/06/03 05:50:09;;;;;;;3.13;2.67;;;20.20;83.80;;;;;;4741898;30;20053;-93
2021/06/03 05:52:37;;;;;;;3.38;3.08;;;20.20;83.90;;;;;;4728609;30;20051;-92
2021/06/03 05:55:05;;;;;;;3.58;2.90;;;20.10;84.10;;;;;;4713860;30;20041;-93
2021/06/03 05:57:32;;;;;;;4.88;3.05;;;20.10;84.40;;;;;;4739019;30;20044;-92
2021/06/03 05:59:59;;;;;;;3.30;2.95;;;20.00;84.50;;;;;;4724978;30;20515;-92
2021/06/03 06:02:45;;;;;;;3.95;3.35;;;20.00;84.80;;;;;;4722777;30;20055;-93
2021/06/03 06:08:01;;;;;;;4.00;2.75;;;20.20;85.30;;;;;;4737390;30;20075;-91
2021/06/03 06:10:28;;;;;;;3.45;2.35;;;20.40;85.10;;;;;;4722500;30;20048;-87
2021/06/03 06:12:55;;;;;;;3.65;2.78;;;20.50;84.90;;;;;;4737427;30;20420;-93
2021/06/03 06:15:22;;;;;;;4.07;1.35;;;20.60;84.80;;;;;;4734354;30;20059;-89
2021/06/03 06:17:49;;;;;;;3.97;2.25;;;20.90;84.50;;;;;;4719151;30;20051;-88
2021/06/03 06:20:25;;;;;;;4.43;2.50;;;21.30;83.90;;;;;;4719948;30;20085;-87
2021/06/03 06:22:54;;;;;;;4.55;3.17;;;21.50;83.40;;;;;;4731150;30;20051;-87
2021/06/03 06:25:21;;;;;;;4.35;3.05;;;21.50;83.30;;;;;;4729960;30;21048;-88
2021/06/03 06:27:48;;;;;;;4.07;2.60;;;21.50;83.40;;;;;;4719835;30;20919;-88
2021/06/03 06:30:16;;;;;;;3.78;2.63;;;21.40;83.50;;;;;;4732753;30;20043;-88
2021/06/03 06:32:46;;;;;;;5.30;3.40;;;21.30;83.80;;;;;;4718378;30;20071;-88
2021/06/03 06:35:12;;;;;;;4.00;3.60;;;21.40;84.10;;;;;;4733027;30;20200;-88
2021/06/03 06:37:40;;;;;;;6.07;4.13;;;21.50;84.10;;;;;;4709712;30;20501;-88
2021/06/03 06:40:08;;;;;;;3.72;3.00;;;21.80;83.70;;;;;;4716803;30;20055;-89
2021/06/03 06:42:35;;;;;;;5.45;3.45;;;22.00;83.20;;;;;;4731506;30;20059;-88
2021/06/03 06:45:06;;;;;;;4.78;3.67;;;22.20;82.50;;;;;;4717991;30;20032;-87
2021/06/03 06:47:35;;;;;;;5.40;3.07;;;22.40;82.00;;;;;;4715272;30;20044;-89
2021/06/03 06:50:07;;;;;;;4.85;3.45;;;22.40;82.10;;;;;;4731086;30;20056;-89
2021/06/03 06:52:34;;;;;;;6.93;2.97;;;22.60;82.00;;;;;;4730550;30;20055;-89
2021/06/03 06:55:02;;;;;;;3.38;3.05;;;22.90;81.50;;;;;;4731299;30;20047;-90
2021/06/03 06:57:28;;;;;;;6.53;4.15;;;23.30;80.80;;;;;;4719777;30;20692;-89
2021/06/03 06:59:55;;;;;;;4.45;3.90;;;23.60;80.10;;;;;;4731352;30;20047;-89
2021/06/03 07:02:21;;;;;;;9.13;4.18;;;23.90;79.30;;;;;;4720333;30;20059;-89
2021/06/03 07:04:48;;;;;;;4.22;3.35;;;24.10;78.50;;;;;;4744960;30;20055;-89
2021/06/03 07:07:15;;;;;;;4.68;4.15;;;24.40;77.90;;;;;;4709778;30;20048;-89
2021/06/03 07:09:42;;;;;;;4.75;4.25;;;24.50;77.40;;;;;;4716524;30;20043;-90
2021/06/03 07:12:11;;;;;;;6.22;4.35;;;24.60;76.80;;;;;;4721948;30;20044;-88
2021/06/03 07:14:37;;;;;;;4.57;3.08;;;24.80;76.40;;;;;;4730800;30;20051;-89
2021/06/03 07:17:04;;;;;;;5.78;4.55;;;25.00;76.00;;;;;;4732293;30;20056;-85
2021/06/03 07:19:31;;;;;;;4.65;3.90;;;25.20;75.40;;;;;;4745470;30;20056;-89
2021/06/03 07:21:57;;;;;;;5.95;4.72;;;25.40;75.10;;;;;;4719400;30;20055;-89
2021/06/03 07:24:24;;;;;;;5.03;3.85;;;25.50;75.00;;;;;;4705518;30;20044;-89
2021/06/03 07:26:50;;;;;;;6.50;2.88;;;25.60;74.10;;;;;;4721304;30;20044;-89
2021/06/03 07:29:17;;;;;;;5.80;3.90;;;25.60;73.80;;;;;;4721337;30;20044;-89
2021/06/03 07:31:43;;;;;;;7.75;3.58;;;25.80;74.10;;;;;;4719189;30;20052;-89
2021/06/03 07:34:10;;;;;;;4.30;3.63;;;25.90;73.10;;;;;;4719681;30;20048;-88
2021/06/03 07:36:36;;;;;;;5.95;4.40;;;26.10;72.70;;;;;;4743918;30;20060;-87
2021/06/03 07:39:06;;;;;;;4.63;3.83;;;26.30;72.10;;;;;;4703264;30;20382;-89
2021/06/03 07:41:34;;;;;;;5.50;3.65;;;26.50;71.50;;;;;;4744353;30;20056;-89
2021/06/03 07:44:01;;;;;;;6.45;4.30;;;26.60;70.90;;;;;;4704264;30;20048;-89
2021/06/03 07:46:28;;;;;;;6.57;4.47;;;26.70;70.40;;;;;;4742457;30;20048;-88
2021/06/03 07:48:54;;;;;;;6.47;4.05;;;26.70;70.30;;;;;;4721950;30;20048;-88
2021/06/03 07:51:21;;;;;;;6.68;5.57;;;26.70;70.20;;;;;;4729994;30;20465;-89
2021/06/03 07:53:48;;;;;;;6.75;3.90;;;26.70;70.30;;;;;;4729197;30;20047;-88
2021/06/03 07:56:15;;;;;;;6.82;6.13;;;26.80;70.10;;;;;;4743654;30;20444;-87
2021/06/03 07:58:42;;;;;;;4.50;3.95;;;27.00;69.70;;;;;;4735148;30;20566;-88
2021/06/03 08:01:08;;;;;;;4.45;2.85;;;27.10;69.20;;;;;;4716956;30;20059;-87
2021/06/03 08:03:36;;;;;;;4.85;2.85;;;27.30;68.90;;;;;;4728502;30;20047;-87
2021/06/03 08:06:02;;;;;;;5.35;3.42;;;27.30;68.20;;;;;;4702494;30;20051;-86
2021/06/03 08:08:35;;;;;;;3.20;2.80;;;27.40;67.70;;;;;;4727179;30;20044;-87
2021/06/03 08:11:02;;;;;;;6.90;3.42;;;27.60;67.70;;;;;;4720119;30;20053;-87
2021/06/03 08:13:29;;;;;;;4.60;3.35;;;27.80;66.80;;;;;;4716132;30;20044;-87
2021/06/03 08:15:56;;;;;;;4.95;3.70;;;28.00;66.10;;;;;;4707293;30;20483;-87
2021/06/03 08:18:23;;;;;;;3.40;3.10;;;28.40;65.50;;;;;;4693416;30;20053;-87
2021/06/03 08:20:55;;;;;;;7.65;2.72;;;28.60;64.30;;;;;;4721763;30;20056;-87
2021/06/03 08:23:23;;;;;;;3.58;2.60;;;28.80;63.80;;;;;;4729540;30;20048;-88
2021/06/03 08:25:49;;;;;;;6.70;3.13;;;29.10;64.10;;;;;;4725619;30;20137;-87
2021/06/03 08:28:17;;;;;;;5.57;3.58;;;29.20;62.70;;;;;;4716307;30;20512;-87
2021/06/03 08:30:45;;;;;;;4.47;3.58;;;29.30;62.70;;;;;;4715691;30;20044;-88
2021/06/03 08:33:12;;;;;;;4.40;2.67;;;29.30;61.70;;;;;;4714172;30;20071;-88
2021/06/03 08:35:38;;;;;;;5.63;2.80;;;29.30;61.60;;;;;;4716305;30;20504;-87
2021/06/03 08:38:08;;;;;;;4.57;2.60;;;29.30;61.20;;;;;;4729024;30;20044;-87
2021/06/03 08:40:41;;;;;;;6.28;2.63;;;29.10;61.10;;;;;;4731626;30;20048;-86
2021/06/03 08:43:09;;;;;;;3.40;2.80;;;28.90;61.30;;;;;;4741428;30;20044;-89
2021/06/03 08:45:38;;;;;;;4.55;3.45;;;28.60;61.40;;;;;;4728354;30;20048;-90
2021/06/03 08:48:05;;;;;;;8.15;3.17;;;28.40;62.00;;;;;;4714310;30;20028;-91
2021/06/03 08:50:36;;;;;;;4.82;2.10;;;28.20;62.50;;;;;;4742732;30;20170;-90
2021/06/03 08:53:04;;;;;;;4.20;2.55;;;28.20;63.10;;;;;;4716636;30;20052;-89
2021/06/03 08:58:20;;;;;;;8.25;2.58;;;28.80;62.10;;;;;;4728460;30;20523;-89
2021/06/03 09:00:47;;;;;;;4.00;2.97;;;29.20;61.30;;;;;;4704469;30;20048;-88
2021/06/03 09:03:15;;;;;;;3.45;2.58;;;29.50;60.80;;;;;;4704951;30;20507;-86
2021/06/03 09:05:42;;;;;;;3.00;2.35;;;29.60;60.10;;;;;;4705432;30;20518;-87
2021/06/03 09:08:29;;;;;;;3.75;2.90;;;29.60;59.90;;;;;;4729127;30;20049;-85
2021/06/03 09:11:04;;;;;;;4.30;2.05;;;29.60;59.70;;;;;;4732400;30;20045;-85
2021/06/03 09:13:35;;;;;;;3.85;1.35;;;29.60;59.70;;;;;;4720135;30;20040;-85
2021/06/03 09:16:11;;;;;;;5.63;1.58;;;29.80;59.20;;;;;;4742867;30;20540;-86
2021/06/03 09:18:40;;;;;;;3.65;2.30;;;29.90;58.70;;;;;;4722617;30;20083;-85
2021/06/03 09:21:15;;;;;;;3.15;2.10;;;30.00;57.70;;;;;;4736867;30;20067;-86
2021/06/03 09:24:02;;;;;;;3.40;1.65;;;30.00;57.40;;;;;;4741729;30;20531;-85
2021/06/03 09:26:35;;;;;;;3.42;1.85;;;30.00;57.60;;;;;;4727748;30;20052;-86
2021/06/03 09:29:04;;;;;;;3.08;1.83;;;30.00;57.50;;;;;;4723207;30;20048;-86
2021/06/03 09:31:32;;;;;;;4.80;3.30;;;29.90;57.90;;;;;;4720580;30;20520;-90
2021/06/03 09:34:00;;;;;;;6.80;2.85;;;29.90;57.80;;;;;;4723051;30;20520;-85
2021/06/03 09:36:51;;;;;;;4.10;2.80;;;30.00;58.10;;;;;;4707779;30;20052;-85
2021/06/03 09:39:35;;;;;;;3.23;2.27;;;30.10;58.30;;;;;;4723594;30;20048;-85
2021/06/03 09:42:08;;;;;;;3.95;3.33;;;30.10;58.30;;;;;;4735715;30;20071;-85
2021/06/03 09:44:51;;;;;;;3.35;2.90;;;29.90;58.30;;;;;;4723084;30;20485;-84
2021/06/03 09:47:19;;;;;;;4.07;3.20;;;29.80;58.30;;;;;;4736295;30;20052;-85
2021/06/03 09:50:07;;;;;;;4.32;3.13;;;29.70;58.70;;;;;;4744834;30;20497;-85
2021/06/03 09:52:35;;;;;;;4.28;2.92;;;29.80;59.40;;;;;;4713504;30;20059;-86
2021/06/03 09:55:04;;;;;;;5.85;3.03;;;29.90;59.00;;;;;;4729400;30;20047;-86
2021/06/03 09:57:39;;;;;;;2.78;2.13;;;30.10;59.00;;;;;;4738111;30;20052;-85
2021/06/03 10:00:20;;;;;;;4.00;3.33;;;30.30;59.00;;;;;;4732334;30;20583;-86
2021/06/03 10:02:54;;;;;;;5.20;3.03;;;30.70;58.40;;;;;;4716878;30;20044;-85
2021/06/03 10:05:22;;;;;;;4.55;4.10;;;31.00;57.70;;;;;;4744021;30;20051;-85
2021/06/03 10:08:07;;;;;;;4.65;4.25;;;31.20;56.80;;;;;;4716968;30;20060;-85
2021/06/03 10:10:39;;;;;;;6.15;4.57;;;31.00;56.90;;;;;;4723736;30;20043;-86
2021/06/03 10:13:09;;;;;;;4.10;2.42;;;30.90;57.10;;;;;;4720457;30;20445;-86
2021/06/03 10:15:37;;;;;;;3.95;3.17;;;31.00;57.60;;;;;;4717458;30;20040;-89
2021/06/03 10:18:08;;;;;;;4.55;2.95;;;31.30;57.50;;;;;;4707882;30;20055;-88
2021/06/03 10:20:54;;;;;;;5.38;2.97;;;31.60;56.20;;;;;;4720325;30;20052;-89
2021/06/03 10:23:30;;;;;;;8.07;3.63;;;31.50;56.40;;;;;;4717326;30;20047;-89
2021/06/03 10:26:05;;;;;;;3.85;2.17;;;31.30;56.40;;;;;;4718390;30;20032;-87
2021/06/03 10:28:32;;;;;;;6.38;2.80;;;31.00;56.60;;;;;;4745937;30;20040;-86
2021/06/03 10:31:07;;;;;;;3.65;2.03;;;30.80;57.10;;;;;;4735350;30;20051;-87
2021/06/03 10:33:39;;;;;;;2.90;2.15;;;30.60;57.20;;;;;;4733153;30;20071;-84
2021/06/03 10:36:08;;;;;;;3.10;2.00;;;30.50;57.60;;;;;;4743746;30;20054;-79
2021/06/03 10:38:36;;;;;;;5.20;2.55;;;30.30;57.80;;;;;;4733343;30;20048;-80
2021/06/03 10:41:05;;;;;;;4.47;3.53;;;30.20;58.20;;;;;;4729545;30;20386;-80
2021/06/03 10:43:36;;;;;;;3.92;2.78;;;30.00;59.20;;;;;;4744919;30;20044;-80
2021/06/03 10:46:03;;;;;;;4.85;2.13;;;29.90;58.90;;;;;;4730141;30;20052;-80
2021/06/03 10:48:30;;;;;;;3.35;2.47;;;29.80;59.30;;;;;;4703645;30;20048;-82
2021/06/03 10:50:58;;;;;;;5.78;2.33;;;29.60;59.50;;;;;;4745316;30;21152;-81
2021/06/03 10:53:28;;;;;;;4.57;2.88;;;29.50;60.00;;;;;;4729775;30;20401;-81
2021/06/03 10:56:10;;;;;;;3.35;2.60;;;29.50;61.00;;;;;;4718841;30;20069;-81
2021/06/03 10:58:39;;;;;;;4.35;3.08;;;29.50;61.90;;;;;;4715151;30;20040;-82
2021/06/03 11:01:08;;;;;;;4.85;3.50;;;29.60;63.10;;;;;;4717641;30;20412;-81
2021/06/03 11:03:51;;;;;;;6.47;3.65;;;29.70;63.20;;;;;;4728318;30;20074;-80
2021/06/03 11:06:23;;;;;;;4.80;2.83;;;30.10;62.60;;;;;;4728777;30;20040;-83
2021/06/03 11:09:06;;;;;;;4.95;2.80;;;30.50;61.70;;;;;;4717697;30;20032;-82
2021/06/03 11:11:38;;;;;;;5.10;2.88;;;30.70;60.80;;;;;;4732232;30;20044;-85
2021/06/03 11:14:17;;;;;;;4.75;3.10;;;30.70;60.10;;;;;;4710156;30;20063;-83
2021/06/03 11:16:46;;;;;;;5.13;3.03;;;30.40;60.80;;;;;;4721606;30;20052;-87
2021/06/03 11:19:14;;;;;;;5.47;3.70;;;29.90;63.10;;;;;;4730998;30;20058;-86
2021/06/03 11:21:42;;;;;;;3.58;3.20;;;29.50;66.10;;;;;;4710135;30;20056;-86
2021/06/03 11:24:35;;;;;;;6.35;5.00;;;29.00;67.60;;;;;;4707018;30;20048;-86
2021/06/03 11:27:05;;;;;;;6.53;4.03;;;28.50;69.80;;;;;;4725838;30;20052;-86
2021/06/03 11:29:38;;;;;;;5.32;4.80;;;28.10;72.10;;;;;;4744468;30;20145;-84
2021/06/03 11:32:05;;;;;;;6.07;4.95;;;27.80;73.90;;;;;;4739091;30;20036;-85
2021/06/03 11:34:38;;;;;;;5.60;5.10;;;27.50;75.90;;;;;;4734280;30;20044;-85
2021/06/03 11:37:22;;;;;;;5.88;5.28;;;27.50;77.00;;;;;;4708586;30;20489;-83
2021/06/03 11:39:54;;;;;;;6.97;5.05;;;27.60;77.90;;;;;;4747700;30;20046;-84
2021/06/03 11:42:29;;;;;;;5.70;4.63;;;28.40;77.90;;;;;;4720642;30;20047;-83
2021/06/03 11:47:57;;;;;;;6.40;5.30;;;30.40;72.20;;;;;;4720341;30;20049;-84
2021/06/03 11:50:24;;;;;;;6.60;5.28;;;30.70;70.40;;;;;;4724367;30;20055;-84
2021/06/03 11:52:56;;;;;;;7.18;4.60;;;30.60;69.30;;;;;;4720722;30;20039;-84
2021/06/03 11:55:38;;;;;;;6.80;4.63;;;30.50;69.70;;;;;;4722324;30;20048;-79
2021/06/03 11:58:25;;;;;;;8.52;5.03;;;30.60;70.10;;;;;;4738400;30;20052;-79
2021/06/03 12:01:03;;;;;;;8.63;4.85;;;30.50;70.00;;;;;;4729689;30;20485;-79
2021/06/03 12:03:34;;;;;;;7.90;5.10;;;30.40;68.60;;;;;;4747804;30;20047;-78
2021/06/03 12:06:15;;;;;;;4.90;4.40;;;30.10;69.00;;;;;;4742140;30;20503;-76
2021/06/03 12:08:55;;;;;;;10.18;8.43;;;29.90;68.90;;;;;;4743189;30;20040;-78
2021/06/03 12:11:33;;;;;;;5.47;4.97;;;29.80;68.40;;;;;;4749863;30;20041;-78
2021/06/03 12:14:05;;;;;;;7.43;3.55;;;30.10;68.80;;;;;;4743077;30;20409;-78
2021/06/03 12:16:37;;;;;;;;;;;30.80;67.80;;;;;;4747220;30;20470;-78
2021/06/03 12:19:11;;;;;;;4.50;2.88;;;31.30;67.10;;;;;;4722197;30;19918;-78
2021/06/03 12:21:38;;;;;;;4.60;3.65;;;31.60;64.90;;;;;;4727893;30;20048;-78
2021/06/03 12:24:05;;;;;;;8.13;4.28;;;31.80;64.30;;;;;;4730518;30;20046;-82
2021/06/03 12:26:36;;;;;;;4.85;2.80;;;32.00;63.60;;;;;;4711751;30;20044;-82
2021/06/03 12:29:04;;;;;;;4.37;2.70;;;32.00;62.30;;;;;;4738629;30;20048;-79
2021/06/03 12:31:30;;;;;;;5.15;2.22;;;31.70;63.30;;;;;;4742624;30;20044;-79
2021/06/03 12:33:57;;;;;;;5.22;3.00;;;31.40;63.80;;;;;;4742611;30;20048;-80
2021/06/03 12:36:26;;;;;;;7.95;5.82;;;30.90;63.40;;;;;;4730337;30;20049;-82
2021/06/03 12:39:02;;;;;;;3.47;2.22;;;30.50;65.20;;;;;;4705173;30;20040;-82
2021/06/03 12:41:32;;;;;;;2.75;2.20;;;30.50;65.60;;;;;;4744143;30;20056;-83
2021/06/03 12:44:00;;;;;;;4.40;2.10;;;30.70;65.40;;;;;;4743461;30;20048;-83
2021/06/03 12:46:49;;;;;;;4.50;3.10;;;31.30;64.40;;;;;;4727450;30;20507;-81
2021/06/03 12:49:25;;;;;;;4.60;3.10;;;31.50;63.10;;;;;;4728105;30;20055;-86
2021/06/03 12:52:00;;;;;;;4.40;2.30;;;31.30;63.40;;;;;;4743712;30;20040;-82
2021/06/03 12:54:28;;;;;;;3.97;2.60;;;31.00;63.40;;;;;;4743231;30;20060;-81
2021/06/03 12:56:58;;;;;;;3.58;2.38;;;30.80;63.10;;;;;;4741924;30;20055;-81
2021/06/03 12:59:28;;;;;;;4.82;2.28;;;30.50;64.30;;;;;;4729883;30;20044;-81
2021/06/03 13:01:55;;;;;;;3.60;2.40;;;30.30;65.40;;;;;;4741885;30;20052;-81
2021/06/03 13:04:22;;;;;;;5.97;2.30;;;30.10;65.70;;;;;;4744233;30;20048;-81
2021/06/03 13:06:49;;;;;;;2.63;2.28;;;29.90;66.00;;;;;;4729881;30;20059;-80
2021/06/03 13:09:16;;;;;;;3.20;2.42;;;29.80;66.50;;;;;;4730698;30;20401;-80
2021/06/03 13:11:45;;;;;;;3.28;1.70;;;29.60;66.70;;;;;;4715299;30;20043;-80